San Bruno, California
Current Conditions -  °F | °C
As of 5:56 PM on Saturday 25 Oct 2014 (Local Time) from KSFO Reporting Station
Broken Clouds Broken Clouds  
Wind Chill: 67°   Ceiling: 8000
Heat Index: 67°   Visibility: 10mi
Dew Point: 60°   Wind: 8mph
Humidity: 79%   Direction: 230°SW
Pressure: 30.06"   Gusts: NA
Location:  37.62°N, 122.41°W
Report Text: KSFO 260056Z 23007KT 10SM FEW028 SCT050 BKN080 19/16 A3006 RMK AO2 RAE21B38E50 SLP180 P0000 T01940156 $
Loading
Personal Weather Stations






























Interactive Weather Map
Tropical Storm Tracking
New forecast layout! Learn more

10-Day Weather Forecast

Advertisements
Track Severe Weather on mobile